Nixa, MO

1:30 PM CST on February 21, 2017 (GMT -0600)
The Ridge | | Change Station

Elev 1289 ft 37.03 °N, 93.28 °W | Updated 37 seconds ago

Overcast
Overcast
59.9 °F
Feels Like 59.9 °F
N
3.0
Wind Variable Wind from ESE

Today
High -- | Low -- °F
--% Chance of Precip.
Yesterday
High -- | Low -- °F
Precip. -- in
Pressure 29.91 in
Visibility 5.0 miles
Clouds Mostly Cloudy 1300 ft
Overcast 1900 ft
Dew Point 58 °F
Humidity 95%
Rainfall 0.20 in
Snow Depth Not available.
6:54 AM 5:59 PM
Waning Crescent, 23% visible
SPECI KSGF 211926Z 35005KT 5SM -RA BR BKN013 OVC019 15/14 A2991 RMK AO2 RAE1856B22 P0000 T01500144
Pressure 29.91 in
Visibility 5.0 miles
Clouds Mostly Cloudy 1300 ft
Overcast 1900 ft
Dew Point 58 °F
Humidity 95%
Rainfall 0.20 in
Snow Depth Not available.
6:54 AM 5:59 PM
Waning Crescent, 23% visible
SPECI KSGF 211926Z 35005KT 5SM -RA BR BKN013 OVC019 15/14 A2991 RMK AO2 RAE1856B22 P0000 T01500144

Get Your Daily Forecast Email!

Thanks for signing up!

Be on the lookout for a verification email in your inbox.

You'll start receiving the daily forecast at 8 AM.

×

10-Day Weather Forecast

Almanac

Astronomy

Feb. 21, 2017 Rise Set
Actual Time
Civil Twilight
Nautical Twilight
Astronomical Twilight
Moon
Length of Visible Light
Length of Day
Tomorrow will be .
, % of the Moon is Illuminated

Today's Extremes

State Highs State Lows

Community

WunderPhotos

Upload Photos

1,962,540 photos uploaded!

WunderBlog® & News

Nearby

Air Quality

  Air Quality AQ Index Pollutant
Not available.

Snow Depth

Station Depth Elevation

Earthquake Activity

City Distance Mag. Time & Date
Minimum magnitude displayed is 2.5.

Coastal Water Temperatures

Place Temperature

Stations

Nearby Weather Stations

Station Location Temp. Windchill Dew Point Humidity Wind Precip. Elev Updated Type
                   

Watches & Warnings

There are currently no watches in effect.